createdAt,value
2022-12-01T00:00:19.095Z,26.63
2022-12-01T00:02:48.116Z,23.87
2022-12-01T00:05:17.245Z,23.47
2022-12-01T00:07:46.155Z,25.17
2022-12-01T00:10:25.924Z,26.97
2022-12-01T00:12:57.468Z,28.33
2022-12-01T00:15:29.115Z,27.20
2022-12-01T00:17:59.342Z,26.30
2022-12-01T00:20:28.724Z,24.37
2022-12-01T00:22:57.559Z,24.57
2022-12-01T00:25:26.664Z,24.70
2022-12-01T00:27:58.947Z,24.17
2022-12-01T00:30:27.613Z,24.57
2022-12-01T00:32:56.369Z,25.00
2022-12-01T00:35:24.953Z,24.40
2022-12-01T00:37:53.691Z,24.60
2022-12-01T00:40:22.681Z,25.53
2022-12-01T00:42:51.635Z,24.17
2022-12-01T00:45:21.671Z,27.40
2022-12-01T00:47:53.290Z,24.20
2022-12-01T00:50:22.669Z,23.13
2022-12-01T00:52:51.484Z,23.40
2022-12-01T00:55:21.377Z,22.53
2022-12-01T00:57:51.109Z,22.53
2022-12-01T01:00:22.280Z,23.83
2022-12-01T01:02:53.488Z,23.93
2022-12-01T01:05:23.334Z,21.70
2022-12-01T01:07:52.456Z,23.33
2022-12-01T01:10:22.742Z,22.57
2022-12-01T01:12:54.225Z,22.80
2022-12-01T01:15:37.923Z,22.90
2022-12-01T01:18:10.010Z,23.20
2022-12-01T01:20:39.384Z,23.77
2022-12-01T01:23:08.141Z,24.23
2022-12-01T01:25:36.955Z,23.77
2022-12-01T01:28:06.029Z,23.47
2022-12-01T01:30:53.160Z,22.17
2022-12-01T01:33:21.821Z,22.17
2022-12-01T01:35:51.041Z,24.10
2022-12-01T01:38:20.148Z,23.47
2022-12-01T01:40:49.666Z,22.83
2022-12-01T01:43:36.918Z,24.37
2022-12-01T01:46:08.440Z,23.57
2022-12-01T01:48:39.811Z,23.53
2022-12-01T01:51:10.138Z,23.10
2022-12-01T01:53:43.558Z,25.33
2022-12-01T01:56:13.206Z,23.30
2022-12-01T01:58:42.945Z,24.37
2022-12-01T02:01:13.729Z,23.07
2022-12-01T02:03:43.562Z,22.97
2022-12-01T02:06:13.930Z,22.67
2022-12-01T02:08:43.030Z,22.83
2022-12-01T02:11:49.665Z,24.27
2022-12-01T02:14:44.214Z,23.27
2022-12-01T02:17:30.777Z,22.90
2022-12-01T02:20:36.381Z,24.27
2022-12-01T02:23:32.859Z,22.20
2022-12-01T02:26:18.016Z,21.83
2022-12-01T02:29:04.051Z,22.40
2022-12-01T02:31:44.733Z,24.40
2022-12-01T02:34:21.959Z,24.47
2022-12-01T02:36:55.455Z,25.63
2022-12-01T02:39:31.388Z,24.00
2022-12-01T02:42:09.535Z,24.67
2022-12-01T02:44:43.088Z,23.33
2022-12-01T02:47:18.046Z,23.93
2022-12-01T02:49:52.532Z,23.87
2022-12-01T02:52:25.220Z,23.90
2022-12-01T02:54:55.105Z,23.70
2022-12-01T02:57:25.837Z,24.43
2022-12-01T02:59:58.420Z,24.83
2022-12-01T03:02:42.923Z,24.13
2022-12-01T03:05:19.713Z,22.60
2022-12-01T03:07:58.750Z,25.43
2022-12-01T03:10:32.973Z,24.30
2022-12-01T03:13:11.526Z,23.07
2022-12-01T03:15:50.748Z,23.53
2022-12-01T03:18:36.418Z,24.80
2022-12-01T03:21:12.439Z,22.80
2022-12-01T03:23:45.433Z,23.47
2022-12-01T03:26:20.538Z,24.37
2022-12-01T03:28:58.233Z,23.83
2022-12-01T03:31:37.167Z,23.70
2022-12-01T03:34:18.295Z,23.07
2022-12-01T03:36:54.349Z,23.53
2022-12-01T03:39:26.523Z,22.47
2022-12-01T03:42:00.053Z,22.70
2022-12-01T03:44:34.794Z,22.53
2022-12-01T03:47:09.343Z,23.10
2022-12-01T03:49:40.901Z,22.60
2022-12-01T03:52:20.426Z,22.93
2022-12-01T03:54:56.649Z,21.90
2022-12-01T03:57:31.050Z,22.30
2022-12-01T04:00:00.077Z,22.63
2022-12-01T04:02:30.194Z,22.23
2022-12-01T04:05:00.807Z,21.20
2022-12-01T04:07:31.322Z,22.77
2022-12-01T04:10:02.438Z,23.37
2022-12-01T04:12:34.278Z,21.73
2022-12-01T04:15:05.370Z,22.03
2022-12-01T04:17:34.006Z,21.83
2022-12-01T04:20:06.720Z,22.27
2022-12-01T04:22:37.921Z,21.80
2022-12-01T04:25:08.828Z,20.93
2022-12-01T04:27:37.976Z,22.57
2022-12-01T04:30:09.056Z,22.13
2022-12-01T04:32:40.469Z,22.50
2022-12-01T04:35:12.737Z,22.50
2022-12-01T04:37:45.068Z,23.50
2022-12-01T04:40:14.546Z,21.90
2022-12-01T04:42:45.444Z,22.23
2022-12-01T04:45:14.719Z,22.53
2022-12-01T04:47:43.705Z,21.27
2022-12-01T04:50:14.828Z,21.10
2022-12-01T04:52:43.829Z,20.93
2022-12-01T04:55:12.389Z,21.47
2022-12-01T04:57:41.559Z,20.90
2022-12-01T05:00:13.430Z,21.80
2022-12-01T05:02:43.402Z,22.03
2022-12-01T05:05:14.481Z,21.00
2022-12-01T05:07:43.210Z,21.87
2022-12-01T05:10:14.318Z,21.97
2022-12-01T05:12:44.469Z,22.17
2022-12-01T05:15:18.328Z,22.20
2022-12-01T05:17:47.329Z,21.50
2022-12-01T05:20:38.433Z,21.33
2022-12-01T05:23:09.751Z,20.90
2022-12-01T05:25:39.972Z,22.13
2022-12-01T05:28:08.730Z,22.50
2022-12-01T05:30:37.471Z,22.70
2022-12-01T05:33:06.016Z,22.27
2022-12-01T05:35:36.871Z,23.20
2022-12-01T05:38:08.010Z,22.07
2022-12-01T05:40:37.120Z,21.83
2022-12-01T05:43:06.453Z,21.87
2022-12-01T05:45:38.913Z,21.33
2022-12-01T05:48:08.223Z,21.90
2022-12-01T05:50:40.427Z,22.53
2022-12-01T05:53:09.465Z,23.27
2022-12-01T05:55:38.184Z,22.93
2022-12-01T05:58:07.521Z,23.83
2022-12-01T06:00:46.031Z,23.33
2022-12-01T06:03:15.441Z,22.57
2022-12-01T06:05:47.213Z,22.30
2022-12-01T06:08:16.003Z,23.00
2022-12-01T06:10:45.350Z,22.27
2022-12-01T06:13:14.053Z,22.57
2022-12-01T06:15:42.740Z,23.57
2022-12-01T06:18:11.261Z,22.57
2022-12-01T06:20:39.915Z,24.40
2022-12-01T06:23:10.066Z,24.43
2022-12-01T06:25:38.827Z,22.83
2022-12-01T06:28:07.686Z,23.00
2022-12-01T06:30:36.558Z,21.67
2022-12-01T06:33:05.914Z,20.53
2022-12-01T06:35:35.131Z,21.13
2022-12-01T06:38:04.311Z,22.13
2022-12-01T06:40:34.651Z,21.70
2022-12-01T06:43:03.917Z,22.07
2022-12-01T06:45:33.584Z,21.17
2022-12-01T06:48:03.109Z,21.43
2022-12-01T06:50:32.645Z,21.23
2022-12-01T06:53:01.669Z,20.73
2022-12-01T06:55:30.667Z,21.40
2022-12-01T06:58:03.750Z,20.90
2022-12-01T07:00:33.026Z,20.73
2022-12-01T07:03:02.076Z,21.70
2022-12-01T07:05:30.707Z,20.87
2022-12-01T07:08:00.387Z,21.30
2022-12-01T07:10:29.601Z,22.43
2022-12-01T07:12:59.087Z,23.70
2022-12-01T07:15:29.726Z,32.00
2022-12-01T07:17:58.839Z,30.73
2022-12-01T07:20:27.858Z,26.73
2022-12-01T07:22:56.867Z,24.60
2022-12-01T07:25:25.871Z,25.30
2022-12-01T07:27:54.427Z,23.57
2022-12-01T07:30:28.207Z,22.57
2022-12-01T07:32:58.854Z,24.97
2022-12-01T07:35:27.895Z,25.73
2022-12-01T07:37:57.174Z,25.87
2022-12-01T07:40:26.510Z,31.97
2022-12-01T07:42:55.470Z,32.33
2022-12-01T07:45:24.646Z,25.40
2022-12-01T07:47:54.739Z,24.90
2022-12-01T07:50:25.192Z,26.00
2022-12-01T07:52:54.224Z,27.53
2022-12-01T07:55:23.462Z,32.00
2022-12-01T07:57:53.559Z,30.10
2022-12-01T08:00:23.158Z,27.70
2022-12-01T08:02:52.841Z,32.97
2022-12-01T08:05:21.709Z,43.27
2022-12-01T08:07:51.985Z,30.47
2022-12-01T08:10:21.156Z,25.73
2022-12-01T08:12:52.200Z,26.30
2022-12-01T08:15:21.316Z,23.37
2022-12-01T08:17:50.823Z,24.67
2022-12-01T08:20:24.096Z,23.40
2022-12-01T08:22:56.248Z,23.70
2022-12-01T08:25:25.655Z,24.00
2022-12-01T08:27:54.459Z,22.67
2022-12-01T08:30:24.324Z,23.47
2022-12-01T08:32:55.388Z,23.57
2022-12-01T08:35:24.396Z,24.03
2022-12-01T08:37:54.678Z,23.67
2022-12-01T08:40:23.763Z,23.13
2022-12-01T08:42:53.987Z,22.37
2022-12-01T08:45:23.210Z,25.07
2022-12-01T08:47:51.827Z,23.80
2022-12-01T08:50:20.578Z,23.10
2022-12-01T08:52:49.896Z,21.80
2022-12-01T08:55:20.516Z,21.93
2022-12-01T08:57:49.789Z,22.07
2022-12-01T09:00:18.977Z,23.67
2022-12-01T09:02:47.768Z,22.57
2022-12-01T09:05:16.624Z,22.27
2022-12-01T09:08:05.293Z,21.40
2022-12-01T09:10:35.329Z,22.77
2022-12-01T09:13:04.358Z,22.47
2022-12-01T09:15:32.930Z,23.40
2022-12-01T09:18:02.114Z,23.60
2022-12-01T09:20:30.938Z,23.33
2022-12-01T09:22:59.875Z,22.87
2022-12-01T09:25:30.964Z,23.37
2022-12-01T09:28:01.047Z,22.10
2022-12-01T09:30:29.867Z,22.60
2022-12-01T09:32:58.491Z,22.37
2022-12-01T09:35:27.675Z,21.73
2022-12-01T09:37:56.328Z,22.13
2022-12-01T09:40:28.097Z,23.47
2022-12-01T09:42:57.352Z,23.60
2022-12-01T09:45:30.628Z,23.27
2022-12-01T09:48:04.007Z,23.43
2022-12-01T09:50:34.063Z,22.77
2022-12-01T09:53:09.018Z,23.17
2022-12-01T09:55:37.897Z,23.27
2022-12-01T09:58:13.274Z,22.47
2022-12-01T10:00:45.239Z,22.87
2022-12-01T10:03:24.295Z,22.17
2022-12-01T10:06:25.871Z,22.23
2022-12-01T10:08:53.472Z,23.47
2022-12-01T10:11:32.121Z,22.17
2022-12-01T10:14:01.382Z,23.10
2022-12-01T10:16:38.525Z,22.10
2022-12-01T10:19:14.337Z,22.07
2022-12-01T10:22:00.386Z,22.07
2022-12-01T10:24:44.937Z,22.27
2022-12-01T10:27:32.850Z,22.93
2022-12-01T10:30:06.964Z,23.30
2022-12-01T10:32:47.251Z,22.50
2022-12-01T10:35:18.394Z,22.83
2022-12-01T10:37:47.994Z,22.30
2022-12-01T10:40:18.809Z,22.97
2022-12-01T10:42:50.299Z,22.57
2022-12-01T10:45:23.573Z,22.03
2022-12-01T10:48:27.130Z,22.90
2022-12-01T10:50:57.029Z,21.90
2022-12-01T10:53:31.000Z,22.23
2022-12-01T10:56:10.762Z,21.83
2022-12-01T10:58:47.878Z,21.17
2022-12-01T11:01:23.828Z,22.00
2022-12-01T11:03:57.671Z,22.10
2022-12-01T11:06:29.823Z,22.17
2022-12-01T11:09:01.843Z,20.80
2022-12-01T11:11:33.989Z,22.20
2022-12-01T11:14:05.127Z,22.07
2022-12-01T11:16:40.743Z,21.07
2022-12-01T11:19:32.515Z,20.57
2022-12-01T11:22:14.044Z,20.40
2022-12-01T11:24:44.943Z,22.63
2022-12-01T11:27:19.176Z,23.47
2022-12-01T11:29:50.892Z,21.07
2022-12-01T11:32:23.829Z,22.93
2022-12-01T11:34:58.050Z,20.80
2022-12-01T11:37:32.776Z,22.80
2022-12-01T11:40:10.092Z,22.07
2022-12-01T11:42:41.480Z,22.20
2022-12-01T11:45:25.442Z,20.73
2022-12-01T11:48:07.341Z,22.57
2022-12-01T11:50:39.871Z,22.10
2022-12-01T11:53:29.074Z,21.20
2022-12-01T11:56:16.752Z,21.73
2022-12-01T11:58:47.910Z,20.87
2022-12-01T12:01:26.724Z,21.83
2022-12-01T12:04:05.531Z,21.00
2022-12-01T12:06:44.722Z,22.53
2022-12-01T12:09:32.672Z,21.30
2022-12-01T12:12:15.902Z,19.87
2022-12-01T12:14:59.632Z,20.67
2022-12-01T12:17:50.955Z,21.53
2022-12-01T12:20:37.477Z,21.47
2022-12-01T12:23:36.674Z,21.10
2022-12-01T12:26:13.680Z,22.37
2022-12-01T12:29:12.353Z,22.20
2022-12-01T12:31:54.521Z,23.13
2022-12-01T12:34:37.968Z,22.80
2022-12-01T12:37:19.065Z,22.87
2022-12-01T12:40:18.997Z,23.03
2022-12-01T12:42:56.147Z,23.37
2022-12-01T12:45:34.830Z,22.57
2022-12-01T12:48:17.733Z,22.37
2022-12-01T12:50:56.542Z,21.87
2022-12-01T12:53:30.384Z,22.37
2022-12-01T12:56:05.245Z,21.97
2022-12-01T12:58:40.752Z,22.17
2022-12-01T13:01:16.920Z,22.43
2022-12-01T13:03:50.518Z,22.23
2022-12-01T13:06:33.397Z,22.00
2022-12-01T13:09:05.544Z,22.13
2022-12-01T13:11:39.895Z,22.87
2022-12-01T13:14:17.683Z,22.07
2022-12-01T13:16:50.331Z,22.13
2022-12-01T13:19:24.876Z,22.17
2022-12-01T13:21:55.321Z,23.67
2022-12-01T13:24:26.539Z,23.37
2022-12-01T13:27:00.573Z,22.87
2022-12-01T13:29:33.289Z,22.83
2022-12-01T13:32:03.448Z,22.57
2022-12-01T13:34:38.597Z,22.37
2022-12-01T13:37:08.807Z,23.10
2022-12-01T13:39:39.950Z,23.40
2022-12-01T13:42:22.587Z,23.33
2022-12-01T13:44:55.501Z,22.53
2022-12-01T13:47:41.910Z,22.23
2022-12-01T13:50:55.735Z,22.00
2022-12-01T13:53:30.722Z,22.93
2022-12-01T13:56:05.903Z,21.53
2022-12-01T13:58:50.125Z,22.87
2022-12-01T14:01:50.124Z,21.47
2022-12-01T14:04:30.170Z,20.80
2022-12-01T14:07:33.231Z,18.97
2022-12-01T14:10:24.128Z,19.87
2022-12-01T14:12:55.137Z,16.63
2022-12-01T14:15:40.350Z,15.27
2022-12-01T14:18:23.908Z,15.87
2022-12-01T14:20:52.624Z,15.07
2022-12-01T14:23:29.222Z,14.67
2022-12-01T14:26:02.542Z,14.33
2022-12-01T14:29:18.705Z,12.50
2022-12-01T14:32:26.270Z,14.03
2022-12-01T14:35:04.973Z,13.90
2022-12-01T14:37:46.687Z,12.90
2022-12-01T14:40:24.592Z,11.97
2022-12-01T14:43:13.961Z,12.23
2022-12-01T14:45:54.243Z,11.47
2022-12-01T14:48:27.810Z,13.80
2022-12-01T14:51:12.379Z,13.93
2022-12-01T14:53:45.430Z,13.77
2022-12-01T14:56:19.814Z,11.93
2022-12-01T14:58:59.490Z,11.27
2022-12-01T15:01:33.745Z,12.53
2022-12-01T15:04:06.214Z,12.87
2022-12-01T15:06:38.013Z,12.87
2022-12-01T15:12:04.906Z,14.67
2022-12-01T15:14:35.741Z,14.60
2022-12-01T15:17:06.061Z,13.50
2022-12-01T15:19:39.094Z,13.07
2022-12-01T15:22:18.723Z,16.20
2022-12-01T15:24:48.255Z,14.10
2022-12-01T15:27:28.877Z,16.80
2022-12-01T15:30:03.518Z,14.17
2022-12-01T15:32:33.885Z,15.27
2022-12-01T15:35:04.781Z,14.73
2022-12-01T15:37:42.361Z,14.80
2022-12-01T15:43:08.728Z,13.67
2022-12-01T15:45:48.206Z,14.77
2022-12-01T15:48:18.658Z,14.93
2022-12-01T15:50:59.723Z,13.93
2022-12-01T15:53:33.033Z,17.43
2022-12-01T15:56:03.906Z,12.10
2022-12-01T15:58:36.366Z,12.97
2022-12-01T16:01:12.387Z,13.17
2022-12-01T16:03:56.802Z,14.50
2022-12-01T16:06:29.221Z,20.33
2022-12-01T16:09:02.082Z,18.10
2022-12-01T16:11:31.842Z,16.17
2022-12-01T16:14:08.226Z,17.37
2022-12-01T16:16:42.801Z,18.57
2022-12-01T16:19:31.055Z,19.77
2022-12-01T16:22:04.722Z,15.60
2022-12-01T16:24:37.440Z,16.13
2022-12-01T16:27:08.530Z,15.53
2022-12-01T16:29:49.853Z,17.67
2022-12-01T16:32:21.816Z,13.53
2022-12-01T16:34:52.608Z,13.20
2022-12-01T16:37:23.090Z,12.27
2022-12-01T16:39:54.322Z,13.27
2022-12-01T16:42:23.826Z,12.77
2022-12-01T16:44:53.547Z,13.83
2022-12-01T16:47:24.342Z,12.50
2022-12-01T16:49:53.737Z,12.87
2022-12-01T16:52:43.640Z,13.40
2022-12-01T16:55:31.727Z,13.60
2022-12-01T16:58:01.247Z,13.77
2022-12-01T17:00:30.629Z,12.47
2022-12-01T17:03:00.388Z,11.03
2022-12-01T17:05:29.893Z,12.17
2022-12-01T17:07:58.686Z,10.77
2022-12-01T17:10:28.871Z,9.53
2022-12-01T17:12:58.593Z,10.23
2022-12-01T17:15:27.765Z,10.93
2022-12-01T17:17:58.070Z,10.27
2022-12-01T17:20:27.157Z,11.10
2022-12-01T17:22:56.246Z,9.93
2022-12-01T17:25:25.419Z,9.40
2022-12-01T17:27:55.827Z,10.13
2022-12-01T17:30:25.806Z,10.80
2022-12-01T17:32:55.299Z,11.33
2022-12-01T17:35:24.438Z,11.40
2022-12-01T17:37:53.932Z,11.47
2022-12-01T17:40:23.250Z,10.93
2022-12-01T17:42:52.298Z,10.83
2022-12-01T17:45:24.853Z,10.77
2022-12-01T17:47:55.488Z,11.10
2022-12-01T17:50:26.506Z,10.93
2022-12-01T17:52:56.538Z,11.20
2022-12-01T17:55:25.684Z,12.17
2022-12-01T17:57:55.057Z,11.00
2022-12-01T18:00:26.267Z,11.37
2022-12-01T18:02:55.381Z,11.40
2022-12-01T18:05:25.328Z,11.87
2022-12-01T18:07:54.731Z,12.10
2022-12-01T18:10:23.796Z,11.37
2022-12-01T18:12:53.781Z,12.43
2022-12-01T18:15:28.187Z,12.00
2022-12-01T18:18:01.963Z,12.07
2022-12-01T18:20:31.799Z,13.50
2022-12-01T18:23:00.629Z,13.10
2022-12-01T18:25:29.553Z,12.17
2022-12-01T18:27:58.908Z,11.30
2022-12-01T18:30:28.000Z,11.07
2022-12-01T18:32:58.267Z,11.60
2022-12-01T18:35:31.897Z,11.13
2022-12-01T18:38:01.264Z,10.50
2022-12-01T18:40:30.259Z,10.53
2022-12-01T18:42:59.274Z,10.80
2022-12-01T18:45:28.200Z,11.37
2022-12-01T18:47:57.158Z,11.40
2022-12-01T18:50:25.956Z,12.63
2022-12-01T18:52:56.469Z,12.13
2022-12-01T18:55:25.704Z,11.00
2022-12-01T18:57:54.699Z,11.53
2022-12-01T19:00:24.076Z,13.53
2022-12-01T19:02:53.293Z,13.00
2022-12-01T19:05:22.915Z,13.40
2022-12-01T19:07:56.733Z,12.33
2022-12-01T19:10:29.048Z,12.30
2022-12-01T19:12:58.469Z,14.73
2022-12-01T19:15:27.478Z,13.47
2022-12-01T19:17:56.352Z,12.67
2022-12-01T19:20:25.856Z,11.27
2022-12-01T19:22:57.253Z,11.40
2022-12-01T19:25:26.510Z,13.70
2022-12-01T19:27:55.294Z,12.80
2022-12-01T19:30:24.278Z,12.53
2022-12-01T19:32:54.841Z,13.57
2022-12-01T19:35:23.933Z,11.60
2022-12-01T19:37:52.833Z,12.17
2022-12-01T19:40:22.993Z,12.80
2022-12-01T19:42:52.112Z,12.80
2022-12-01T19:45:21.848Z,15.33
2022-12-01T19:47:51.515Z,14.00
2022-12-01T19:50:20.739Z,13.63
2022-12-01T19:52:49.999Z,14.03
2022-12-01T19:55:19.492Z,14.67
2022-12-01T19:57:53.268Z,14.27
2022-12-01T20:00:26.216Z,14.10
2022-12-01T20:02:57.831Z,13.37
2022-12-01T20:05:27.062Z,13.27
2022-12-01T20:07:56.325Z,13.60
2022-12-01T20:10:25.744Z,13.93
2022-12-01T20:12:59.400Z,14.23
2022-12-01T20:15:29.012Z,16.43
2022-12-01T20:17:58.343Z,16.20
2022-12-01T20:20:27.680Z,15.43
2022-12-01T20:22:58.175Z,13.87
2022-12-01T20:25:27.588Z,14.63
2022-12-01T20:27:58.313Z,12.60
2022-12-01T20:30:27.481Z,13.13
2022-12-01T20:32:56.648Z,12.53
2022-12-01T20:35:25.894Z,12.33
2022-12-01T20:37:54.974Z,12.13
2022-12-01T20:40:24.653Z,13.60
2022-12-01T20:42:53.765Z,13.03
2022-12-01T20:45:24.741Z,12.00
2022-12-01T20:47:53.818Z,11.73
2022-12-01T20:50:22.805Z,11.37
2022-12-01T20:52:52.125Z,11.80
2022-12-01T20:55:21.515Z,12.67
2022-12-01T20:57:50.680Z,12.57
2022-12-01T21:00:20.844Z,12.70
2022-12-01T21:02:51.570Z,13.03
2022-12-01T21:05:20.909Z,12.27
2022-12-01T21:07:49.770Z,13.93
2022-12-01T21:10:20.276Z,13.93
2022-12-01T21:13:10.609Z,14.10
2022-12-01T21:15:50.854Z,14.00
2022-12-01T21:18:24.287Z,15.60
2022-12-01T21:20:58.060Z,16.70
2022-12-01T21:23:29.204Z,16.17
2022-12-01T21:25:58.629Z,14.27
2022-12-01T21:28:28.335Z,14.60
2022-12-01T21:31:03.203Z,15.23
2022-12-01T21:33:35.701Z,15.73
2022-12-01T21:36:15.965Z,15.80
2022-12-01T21:38:45.985Z,14.33
2022-12-01T21:41:19.954Z,12.63
2022-12-01T21:43:49.267Z,10.40
2022-12-01T21:46:19.860Z,9.50
2022-12-01T21:48:52.445Z,10.97
2022-12-01T21:51:24.081Z,12.20
2022-12-01T21:53:55.236Z,12.80
2022-12-01T21:56:26.204Z,11.90
2022-12-01T21:58:59.140Z,11.67
2022-12-01T22:01:31.869Z,12.77
2022-12-01T22:04:07.997Z,12.33
2022-12-01T22:06:41.036Z,13.17
2022-12-01T22:09:17.933Z,14.80
2022-12-01T22:11:50.736Z,13.93
2022-12-01T22:14:22.577Z,15.23
2022-12-01T22:16:56.978Z,15.67
2022-12-01T22:19:32.765Z,14.77
2022-12-01T22:22:15.878Z,15.60
2022-12-01T22:24:47.280Z,15.60
2022-12-01T22:27:30.278Z,16.57
2022-12-01T22:30:02.883Z,16.83
2022-12-01T22:32:48.973Z,17.87
2022-12-01T22:35:33.012Z,16.93
2022-12-01T22:38:16.785Z,17.80
2022-12-01T22:40:55.022Z,17.67
2022-12-01T22:43:34.204Z,18.17
2022-12-01T22:46:25.762Z,17.83
2022-12-01T22:48:57.828Z,17.33
2022-12-01T22:51:37.549Z,19.00
2022-12-01T22:54:27.336Z,19.27
2022-12-01T22:57:11.320Z,18.53
2022-12-01T22:59:42.752Z,18.83
2022-12-01T23:02:22.242Z,18.63
2022-12-01T23:04:56.597Z,17.23
2022-12-01T23:07:34.447Z,17.70
2022-12-01T23:10:13.699Z,16.60
2022-12-01T23:12:47.151Z,16.17
2022-12-01T23:15:26.574Z,16.87
2022-12-01T23:18:00.686Z,16.93
2022-12-01T23:20:34.827Z,16.57
2022-12-01T23:23:07.538Z,15.77
2022-12-01T23:25:36.778Z,14.70
2022-12-01T23:28:09.231Z,14.77
2022-12-01T23:30:40.202Z,14.90
2022-12-01T23:33:18.046Z,14.13
2022-12-01T23:35:49.997Z,13.97
2022-12-01T23:38:22.109Z,15.57
2022-12-01T23:40:52.677Z,14.43
2022-12-01T23:43:24.249Z,16.53
2022-12-01T23:46:04.087Z,15.27
2022-12-01T23:48:37.491Z,15.67
2022-12-01T23:51:14.459Z,15.67
2022-12-01T23:53:44.805Z,15.60
2022-12-01T23:56:18.097Z,15.63
2022-12-01T23:58:48.403Z,15.83
